createdAt,value
2019-04-28T00:02:50.791Z,80.82
2019-04-28T00:05:54.541Z,82.21
2019-04-28T00:08:58.693Z,81.79
2019-04-28T00:12:02.665Z,82.29
2019-04-28T00:15:07.119Z,80.65
2019-04-28T00:18:11.954Z,81.67
2019-04-28T00:21:32.037Z,81.80
2019-04-28T00:24:43.120Z,81.17
2019-04-28T00:27:46.832Z,81.29
2019-04-28T00:30:51.718Z,81.58
2019-04-28T00:33:55.420Z,81.40
2019-04-28T00:37:24.240Z,81.56
2019-04-28T00:40:28.252Z,81.93
2019-04-28T00:43:32.036Z,81.60
2019-04-28T00:46:36.995Z,82.29
2019-04-28T00:49:46.759Z,82.26
2019-04-28T00:52:51.790Z,81.94
2019-04-28T00:55:56.030Z,82.04
2019-04-28T00:59:01.285Z,81.36
2019-04-28T01:02:11.579Z,82.30
2019-04-28T01:05:15.454Z,81.62
2019-04-28T01:08:20.928Z,81.70
2019-04-28T01:11:24.653Z,80.94
2019-04-28T01:14:28.376Z,80.94
2019-04-28T01:17:40.560Z,81.89
2019-04-28T01:20:46.016Z,81.39
2019-04-28T01:23:50.164Z,82.14
2019-04-28T01:26:55.959Z,82.82
2019-04-28T01:30:08.021Z,82.63
2019-04-28T01:33:12.331Z,81.42
2019-04-28T01:36:16.588Z,80.99
2019-04-28T01:39:20.293Z,81.54
2019-04-28T01:42:24.314Z,81.37
2019-04-28T01:45:29.996Z,81.67
2019-04-28T01:48:33.882Z,82.39
2019-04-28T01:51:37.719Z,82.23
2019-04-28T01:54:41.749Z,82.29
2019-04-28T01:57:45.449Z,82.15
2019-04-28T02:00:50.547Z,81.97
2019-04-28T02:03:54.749Z,81.71
2019-04-28T02:06:59.874Z,82.47
2019-04-28T02:10:03.882Z,81.96
2019-04-28T02:13:09.593Z,82.58
2019-04-28T02:16:13.405Z,82.12
2019-04-28T02:19:17.119Z,82.07
2019-04-28T02:22:26.156Z,82.67
2019-04-28T02:25:29.912Z,82.50
2019-04-28T02:28:33.562Z,81.13
2019-04-28T02:31:37.631Z,81.75
2019-04-28T02:34:41.512Z,81.76
2019-04-28T02:37:45.233Z,81.78
2019-04-28T02:40:50.454Z,82.61
2019-04-28T02:43:54.338Z,82.34
2019-04-28T02:47:00.717Z,82.47
2019-04-28T02:50:27.777Z,82.23
2019-04-28T02:53:34.344Z,81.90
2019-04-28T02:56:40.950Z,82.53
2019-04-28T02:59:44.853Z,82.18
2019-04-28T03:02:51.339Z,81.72
2019-04-28T03:05:54.807Z,82.43
2019-04-28T03:09:00.312Z,82.55
2019-04-28T03:12:04.338Z,82.70
2019-04-28T03:15:10.329Z,81.69
2019-04-28T03:18:13.939Z,82.73
2019-04-28T03:21:17.793Z,82.24
2019-04-28T03:24:22.381Z,82.09
2019-04-28T03:27:36.724Z,82.13
2019-04-28T03:31:06.603Z,82.21
2019-04-28T03:34:05.327Z,82.67
2019-04-28T03:37:11.301Z,83.59
2019-04-28T03:40:14.485Z,82.30
2019-04-28T03:43:20.985Z,82.71
2019-04-28T03:46:26.843Z,82.17
2019-04-28T03:49:34.895Z,82.08
2019-04-28T03:52:41.260Z,82.87
2019-04-28T03:55:44.645Z,82.94
2019-04-28T03:58:50.471Z,82.13
2019-04-28T04:01:59.362Z,82.19
2019-04-28T04:05:00.796Z,82.07
2019-04-28T04:08:04.775Z,82.84
2019-04-28T04:11:20.137Z,81.90
2019-04-28T04:14:31.866Z,82.37
2019-04-28T04:17:41.940Z,82.28
2019-04-28T04:20:45.647Z,82.78
2019-04-28T04:23:50.972Z,82.82
2019-04-28T04:26:54.874Z,83.60
2019-04-28T04:30:01.761Z,82.77
2019-04-28T04:33:04.690Z,82.70
2019-04-28T04:36:10.889Z,82.50
2019-04-28T04:39:14.106Z,82.99
2019-04-28T04:42:20.465Z,82.30
2019-04-28T04:45:23.864Z,83.23
2019-04-28T04:48:27.571Z,83.22
2019-04-28T04:51:31.822Z,83.30
2019-04-28T04:54:36.884Z,82.73
2019-04-28T04:57:40.956Z,82.98
2019-04-28T05:00:52.406Z,83.78
2019-04-28T05:03:59.632Z,83.81
2019-04-28T05:07:03.396Z,84.01
2019-04-28T05:10:07.292Z,83.15
2019-04-28T05:13:11.340Z,82.42
2019-04-28T05:16:15.382Z,83.13
2019-04-28T05:19:19.874Z,83.23
2019-04-28T05:22:25.325Z,81.54
2019-04-28T05:25:39.593Z,82.68
2019-04-28T05:28:50.475Z,83.08
2019-04-28T05:31:50.382Z,83.11
2019-04-28T05:34:54.218Z,82.83
2019-04-28T05:37:59.767Z,82.72
2019-04-28T05:41:03.564Z,83.35
2019-04-28T05:44:07.673Z,82.53
2019-04-28T05:47:11.718Z,82.99
2019-04-28T05:50:21.924Z,82.74
2019-04-28T05:53:40.341Z,81.91
2019-04-28T05:57:13.213Z,83.00
2019-04-28T06:00:29.687Z,83.24
2019-04-28T06:03:33.667Z,82.65
2019-04-28T06:06:40.566Z,82.98
2019-04-28T06:09:47.800Z,82.85
2019-04-28T06:12:51.790Z,83.32
2019-04-28T06:15:55.505Z,83.25
2019-04-28T06:19:00.057Z,83.93
2019-04-28T06:22:04.154Z,83.03
2019-04-28T06:25:08.081Z,83.15
2019-04-28T06:28:11.789Z,83.14
2019-04-28T06:31:15.848Z,82.05
2019-04-28T06:34:19.568Z,82.77
2019-04-28T06:37:23.275Z,82.45
2019-04-28T06:40:27.061Z,82.13
2019-04-28T06:43:30.759Z,81.72
2019-04-28T06:46:34.472Z,82.80
2019-04-28T06:49:38.290Z,83.67
2019-04-28T06:52:41.995Z,82.68
2019-04-28T06:55:45.762Z,82.89
2019-04-28T06:58:58.910Z,82.29
2019-04-28T07:01:54.911Z,83.45
2019-04-28T07:05:02.367Z,82.25
2019-04-28T07:08:04.318Z,82.45
2019-04-28T07:11:08.018Z,83.04
2019-04-28T07:14:11.741Z,83.02
2019-04-28T07:17:15.457Z,84.00
2019-04-28T07:20:37.395Z,82.70
2019-04-28T07:23:42.480Z,83.57
2019-04-28T07:26:46.201Z,83.61
2019-04-28T07:29:50.227Z,83.59
2019-04-28T07:32:54.032Z,84.08
2019-04-28T07:35:57.732Z,83.81
2019-04-28T07:39:01.707Z,84.06
2019-04-28T07:42:05.595Z,84.71
2019-04-28T07:45:10.251Z,84.14
2019-04-28T07:48:13.937Z,84.72
2019-04-28T07:51:18.416Z,84.85
2019-04-28T07:54:22.417Z,85.44
2019-04-28T07:57:26.137Z,84.90
2019-04-28T08:00:30.630Z,85.96
2019-04-28T08:03:34.352Z,84.46
2019-04-28T08:06:38.152Z,84.75
2019-04-28T08:09:41.934Z,85.87
2019-04-28T08:12:45.645Z,84.42
2019-04-28T08:15:49.436Z,84.82
2019-04-28T08:18:53.189Z,85.02
2019-04-28T08:21:56.889Z,85.54
2019-04-28T08:25:00.638Z,85.80
2019-04-28T08:28:04.422Z,84.91
2019-04-28T08:31:09.988Z,84.30
2019-04-28T08:34:13.859Z,83.96
2019-04-28T08:37:17.571Z,84.09
2019-04-28T08:40:21.672Z,85.07
2019-04-28T08:43:25.372Z,85.15
2019-04-28T08:46:29.389Z,83.76
2019-04-28T08:49:33.111Z,83.08
2019-04-28T08:52:37.094Z,85.30
2019-04-28T08:55:40.809Z,84.93
2019-04-28T08:58:44.548Z,84.51
2019-04-28T09:01:48.269Z,85.17
2019-04-28T09:04:51.978Z,83.89
2019-04-28T09:07:55.678Z,84.18
2019-04-28T09:10:59.668Z,84.76
2019-04-28T09:14:03.448Z,83.84
2019-04-28T09:17:07.469Z,83.66
2019-04-28T09:20:11.885Z,82.09
2019-04-28T09:23:15.659Z,81.97
2019-04-28T09:26:19.707Z,81.92
2019-04-28T09:29:23.743Z,81.31
2019-04-28T09:32:27.832Z,82.75
2019-04-28T09:35:31.750Z,83.05
2019-04-28T09:38:35.455Z,83.16
2019-04-28T09:41:41.480Z,83.59
2019-04-28T09:44:45.184Z,83.16
2019-04-28T09:47:48.938Z,81.39
2019-04-28T09:50:53.044Z,82.10
2019-04-28T09:53:56.755Z,81.26
2019-04-28T09:57:00.509Z,81.68
2019-04-28T10:00:05.135Z,81.03
2019-04-28T10:03:09.111Z,81.71
2019-04-28T10:06:12.945Z,81.09
2019-04-28T10:09:16.616Z,80.65
2019-04-28T10:12:27.001Z,80.78
2019-04-28T10:15:26.083Z,79.68
2019-04-28T10:18:30.098Z,80.00
2019-04-28T10:21:34.130Z,80.32
2019-04-28T10:24:37.847Z,79.47
2019-04-28T10:27:41.962Z,80.37
2019-04-28T10:30:46.067Z,78.89
2019-04-28T10:33:53.515Z,79.37
2019-04-28T10:36:57.580Z,80.60
2019-04-28T10:40:05.392Z,78.63
2019-04-28T10:43:09.189Z,78.22
2019-04-28T10:46:12.965Z,76.51
2019-04-28T10:49:16.762Z,78.97
2019-04-28T10:52:20.541Z,77.71
2019-04-28T10:55:24.246Z,78.68
2019-04-28T10:58:27.963Z,79.60
2019-04-28T11:01:31.687Z,79.86
2019-04-28T11:04:53.321Z,79.36
2019-04-28T11:07:57.265Z,78.31
2019-04-28T11:11:04.162Z,77.67
2019-04-28T11:14:08.144Z,79.12
2019-04-28T11:17:12.111Z,78.77
2019-04-28T11:20:15.970Z,78.45
2019-04-28T11:23:19.666Z,77.75
2019-04-28T11:26:23.377Z,76.95
2019-04-28T11:29:27.089Z,76.25
2019-04-28T11:32:30.838Z,76.77
2019-04-28T11:35:35.696Z,74.12
2019-04-28T11:38:39.764Z,75.58
2019-04-28T11:41:43.561Z,77.23
2019-04-28T11:44:47.607Z,75.96
2019-04-28T11:47:51.321Z,75.60
2019-04-28T11:50:55.109Z,74.96
2019-04-28T11:53:58.806Z,73.35
2019-04-28T11:57:02.923Z,73.44
2019-04-28T12:00:15.086Z,73.88
2019-04-28T12:03:18.797Z,75.93
2019-04-28T12:06:22.842Z,74.78
2019-04-28T12:09:37.678Z,73.84
2019-04-28T12:13:00.987Z,72.64
2019-04-28T12:16:22.664Z,74.53
2019-04-28T12:19:35.932Z,70.40
2019-04-28T12:22:39.655Z,69.44
2019-04-28T12:25:43.410Z,72.42
2019-04-28T12:28:47.102Z,73.24
2019-04-28T12:31:51.255Z,68.74
2019-04-28T12:34:55.018Z,68.48
2019-04-28T12:37:58.731Z,70.37
2019-04-28T12:41:02.449Z,69.15
2019-04-28T12:44:06.305Z,68.19
2019-04-28T12:47:10.025Z,68.06
2019-04-28T12:50:22.906Z,68.69
2019-04-28T12:53:26.972Z,65.95
2019-04-28T12:56:30.684Z,66.15
2019-04-28T12:59:40.866Z,69.70
2019-04-28T13:03:02.310Z,66.24
2019-04-28T13:06:08.362Z,66.63
2019-04-28T13:09:12.239Z,64.59
2019-04-28T13:12:15.953Z,68.09
2019-04-28T13:15:19.661Z,65.23
2019-04-28T13:18:23.725Z,66.98
2019-04-28T13:21:27.499Z,64.62
2019-04-28T13:24:31.222Z,67.82
2019-04-28T13:27:34.942Z,66.01
2019-04-28T13:30:38.658Z,68.89
2019-04-28T13:33:55.307Z,62.07
2019-04-28T13:36:47.852Z,63.36
2019-04-28T13:39:58.728Z,62.82
2019-04-28T13:43:02.438Z,63.65
2019-04-28T13:46:06.221Z,60.73
2019-04-28T13:49:11.720Z,61.75
2019-04-28T13:52:15.436Z,58.78
2019-04-28T13:55:37.310Z,57.00
2019-04-28T13:58:43.083Z,57.26
2019-04-28T14:02:04.549Z,58.54
2019-04-28T14:05:24.529Z,55.61
2019-04-28T14:08:28.319Z,58.44
2019-04-28T14:11:32.034Z,59.86
2019-04-28T14:14:35.758Z,54.58
2019-04-28T14:17:39.854Z,56.03
2019-04-28T14:20:43.533Z,55.97
2019-04-28T14:23:47.308Z,55.99
2019-04-28T14:26:51.380Z,57.20
2019-04-28T14:29:55.453Z,58.46
2019-04-28T14:32:59.198Z,57.34
2019-04-28T14:36:02.920Z,58.10
2019-04-28T14:39:09.017Z,60.57
2019-04-28T14:42:12.813Z,58.02
2019-04-28T14:45:16.535Z,57.55
2019-04-28T14:48:20.257Z,57.40
2019-04-28T14:51:23.961Z,59.06
2019-04-28T14:54:27.731Z,58.45
2019-04-28T14:57:31.512Z,58.61
2019-04-28T15:00:39.952Z,60.18
2019-04-28T15:03:46.432Z,60.20
2019-04-28T15:06:58.002Z,57.43
2019-04-28T15:10:06.344Z,58.67
2019-04-28T15:13:10.142Z,60.36
2019-04-28T15:16:14.224Z,59.12
2019-04-28T15:19:18.194Z,58.78
2019-04-28T15:22:22.551Z,59.35
2019-04-28T15:25:26.268Z,59.99
2019-04-28T15:28:29.977Z,64.10
2019-04-28T15:31:33.694Z,59.99
2019-04-28T15:34:37.439Z,60.47
2019-04-28T15:37:41.147Z,58.92
2019-04-28T15:40:45.146Z,59.61
2019-04-28T15:43:49.742Z,59.76
2019-04-28T15:46:53.539Z,58.31
2019-04-28T15:50:00.749Z,60.58
2019-04-28T15:53:05.245Z,62.50
2019-04-28T15:56:14.633Z,60.19
2019-04-28T15:59:19.544Z,59.94
2019-04-28T16:02:24.015Z,59.58
2019-04-28T16:05:27.837Z,65.37
2019-04-28T16:08:31.554Z,66.51
2019-04-28T16:11:35.274Z,60.06
2019-04-28T16:14:39.442Z,61.79
2019-04-28T16:17:43.169Z,64.24
2019-04-28T16:20:46.887Z,61.28
2019-04-28T16:23:50.886Z,59.82
2019-04-28T16:26:54.649Z,63.47
2019-04-28T16:29:58.356Z,65.03
2019-04-28T16:33:02.083Z,62.62
2019-04-28T16:36:06.111Z,60.59
2019-04-28T16:39:09.916Z,60.54
2019-04-28T16:42:13.735Z,62.31
2019-04-28T16:45:18.646Z,63.94
2019-04-28T16:48:22.918Z,61.82
2019-04-28T16:51:26.895Z,65.18
2019-04-28T16:54:30.604Z,62.65
2019-04-28T16:57:45.072Z,61.94
2019-04-28T17:01:15.049Z,64.37
2019-04-28T17:04:18.847Z,57.73
2019-04-28T17:07:22.640Z,59.95
2019-04-28T17:10:26.349Z,63.01
2019-04-28T17:13:30.329Z,64.07
2019-04-28T17:16:34.864Z,62.58
2019-04-28T17:19:39.019Z,64.13
2019-04-28T17:22:42.823Z,61.20
2019-04-28T17:25:46.844Z,60.96
2019-04-28T17:28:50.909Z,62.72
2019-04-28T17:31:54.658Z,64.50
2019-04-28T17:34:58.502Z,64.09
2019-04-28T17:38:06.711Z,60.99
2019-04-28T17:41:07.820Z,60.48
2019-04-28T17:44:11.799Z,61.66
2019-04-28T17:47:17.158Z,62.70
2019-04-28T17:50:21.627Z,63.39
2019-04-28T17:53:25.698Z,62.38
2019-04-28T17:56:29.399Z,62.95
2019-04-28T17:59:33.397Z,63.82
2019-04-28T18:02:55.253Z,62.35
2019-04-28T18:06:17.616Z,63.58
2019-04-28T18:09:14.891Z,63.37
2019-04-28T18:12:18.680Z,63.16
2019-04-28T18:15:47.856Z,67.00
2019-04-28T18:19:03.831Z,65.12
2019-04-28T18:22:07.749Z,67.06
2019-04-28T18:25:12.236Z,69.99
2019-04-28T18:28:15.950Z,70.42
2019-04-28T18:31:39.371Z,67.52
2019-04-28T18:34:48.222Z,68.98
2019-04-28T18:37:59.745Z,68.87
2019-04-28T18:41:21.573Z,70.57
2019-04-28T18:44:25.586Z,72.24
2019-04-28T18:47:30.030Z,72.75
2019-04-28T18:50:34.031Z,73.34
2019-04-28T18:53:38.083Z,72.63
2019-04-28T18:56:41.929Z,73.77
2019-04-28T18:59:45.939Z,73.69
2019-04-28T19:02:50.005Z,74.57
2019-04-28T19:05:54.052Z,74.16
2019-04-28T19:09:03.016Z,74.25
2019-04-28T19:12:22.862Z,74.92
2019-04-28T19:15:41.460Z,73.86
2019-04-28T19:18:45.749Z,73.94
2019-04-28T19:21:56.144Z,75.43
2019-04-28T19:24:59.928Z,75.36
2019-04-28T19:28:04.030Z,75.53
2019-04-28T19:31:08.115Z,75.82
2019-04-28T19:34:12.100Z,76.26
2019-04-28T19:37:15.896Z,76.53
2019-04-28T19:40:19.974Z,77.17
2019-04-28T19:43:24.068Z,76.29
2019-04-28T19:46:27.779Z,76.60
2019-04-28T19:49:31.482Z,77.20
2019-04-28T19:52:35.200Z,76.66
2019-04-28T19:55:43.812Z,77.28
2019-04-28T19:58:54.915Z,77.32
2019-04-28T20:01:58.902Z,77.73
2019-04-28T20:05:03.061Z,77.42
2019-04-28T20:08:07.080Z,77.47
2019-04-28T20:11:11.067Z,77.09
2019-04-28T20:14:14.771Z,77.35
2019-04-28T20:17:18.480Z,77.73
2019-04-28T20:20:22.190Z,78.31
2019-04-28T20:23:26.415Z,77.82
2019-04-28T20:26:30.138Z,77.65
2019-04-28T20:29:34.315Z,78.28
2019-04-28T20:32:45.615Z,78.67
2019-04-28T20:35:54.277Z,78.91
2019-04-28T20:39:01.919Z,78.68
2019-04-28T20:42:23.636Z,78.88
2019-04-28T20:45:27.744Z,79.22
2019-04-28T20:48:31.777Z,78.50
2019-04-28T20:51:35.786Z,79.09
2019-04-28T20:54:39.501Z,78.74
2019-04-28T20:57:43.521Z,78.96
2019-04-28T21:00:47.530Z,79.36
2019-04-28T21:03:51.434Z,79.57
2019-04-28T21:06:55.298Z,78.91
2019-04-28T21:09:59.378Z,79.64
2019-04-28T21:13:03.220Z,79.51
2019-04-28T21:16:07.590Z,79.39
2019-04-28T21:19:11.334Z,79.89
2019-04-28T21:22:15.033Z,79.92
2019-04-28T21:25:19.003Z,79.67
2019-04-28T21:28:23.171Z,79.34
2019-04-28T21:31:26.885Z,80.11
2019-04-28T21:34:30.856Z,79.80
2019-04-28T21:37:34.564Z,79.56
2019-04-28T21:40:38.946Z,79.99
2019-04-28T21:43:58.116Z,80.05
2019-04-28T21:47:08.325Z,80.24
2019-04-28T21:50:12.111Z,80.38
2019-04-28T21:53:15.814Z,80.10
2019-04-28T21:56:19.528Z,80.32
2019-04-28T21:59:23.243Z,80.29
2019-04-28T22:02:27.039Z,80.59
2019-04-28T22:05:30.836Z,80.13
2019-04-28T22:08:34.604Z,80.02
2019-04-28T22:11:38.381Z,80.19
2019-04-28T22:14:42.164Z,80.30
2019-04-28T22:17:45.877Z,80.36
2019-04-28T22:20:49.667Z,81.02
2019-04-28T22:24:08.012Z,80.42
2019-04-28T22:27:13.769Z,80.52
2019-04-28T22:30:18.634Z,80.59
2019-04-28T22:33:22.370Z,80.48
2019-04-28T22:36:27.011Z,80.82
2019-04-28T22:39:30.981Z,80.50
2019-04-28T22:42:34.690Z,80.54
2019-04-28T22:45:38.386Z,80.74
2019-04-28T22:48:42.166Z,80.64
2019-04-28T22:51:46.158Z,81.18
2019-04-28T22:55:09.213Z,81.12
2019-04-28T22:58:27.398Z,81.23
2019-04-28T23:01:34.062Z,80.93
2019-04-28T23:04:46.501Z,81.10
2019-04-28T23:07:50.855Z,80.83
2019-04-28T23:10:54.623Z,80.85
2019-04-28T23:13:58.344Z,80.85
2019-04-28T23:17:02.407Z,81.01
2019-04-28T23:20:09.481Z,81.05
2019-04-28T23:23:13.461Z,80.68
2019-04-28T23:26:17.270Z,81.19
2019-04-28T23:29:20.988Z,80.96
2019-04-28T23:32:24.703Z,81.03
2019-04-28T23:35:28.492Z,80.59
2019-04-28T23:38:32.205Z,80.74
2019-04-28T23:41:43.961Z,81.05
2019-04-28T23:44:47.752Z,80.97
2019-04-28T23:47:51.458Z,81.10
2019-04-28T23:51:05.012Z,80.98
2019-04-28T23:54:08.774Z,81.10
2019-04-28T23:57:12.480Z,81.13
